createdAt,value
2018-08-23T00:00:52.216Z,21.80
2018-08-23T00:03:26.007Z,21.80
2018-08-23T00:05:56.645Z,21.70
2018-08-23T00:08:25.439Z,21.70
2018-08-23T00:10:54.693Z,21.60
2018-08-23T00:13:23.535Z,21.60
2018-08-23T00:15:52.070Z,21.50
2018-08-23T00:18:20.626Z,21.50
2018-08-23T00:20:49.193Z,21.50
2018-08-23T00:23:17.661Z,21.50
2018-08-23T00:25:46.387Z,21.40
2018-08-23T00:28:14.868Z,21.40
2018-08-23T00:30:45.970Z,21.40
2018-08-23T00:33:14.504Z,21.40
2018-08-23T00:35:43.078Z,21.30
2018-08-23T00:38:11.519Z,21.30
2018-08-23T00:40:41.300Z,21.30
2018-08-23T00:43:11.792Z,21.20
2018-08-23T00:45:40.273Z,21.20
2018-08-23T00:48:08.785Z,21.20
2018-08-23T00:50:54.233Z,21.20
2018-08-23T00:53:22.799Z,21.10
2018-08-23T00:56:24.463Z,21.10
2018-08-23T00:59:00.182Z,21.10
2018-08-23T01:01:29.014Z,21.00
2018-08-23T01:03:57.522Z,21.00
2018-08-23T01:06:37.504Z,21.00
2018-08-23T01:09:07.704Z,20.90
2018-08-23T01:11:36.232Z,20.90
2018-08-23T01:14:04.929Z,20.90
2018-08-23T01:16:33.430Z,20.80
2018-08-23T01:19:07.188Z,20.80
2018-08-23T01:21:44.086Z,20.90
2018-08-23T01:24:12.622Z,20.80
2018-08-23T01:26:41.093Z,20.80
2018-08-23T01:29:22.780Z,20.80
2018-08-23T01:31:51.522Z,20.80
2018-08-23T01:34:20.068Z,20.70
2018-08-23T01:36:48.588Z,20.70
2018-08-23T01:39:17.087Z,20.70
2018-08-23T01:41:49.423Z,20.70
2018-08-23T01:44:18.000Z,20.60
2018-08-23T01:46:46.521Z,20.60
2018-08-23T01:49:15.266Z,20.60
2018-08-23T01:51:43.829Z,20.50
2018-08-23T01:54:14.522Z,20.50
2018-08-23T01:56:43.143Z,20.50
2018-08-23T01:59:11.812Z,20.50
2018-08-23T02:01:40.376Z,20.50
2018-08-23T02:04:08.929Z,20.40
2018-08-23T02:06:37.387Z,20.40
2018-08-23T02:09:07.910Z,20.40
2018-08-23T02:11:37.495Z,20.40
2018-08-23T02:14:06.061Z,20.40
2018-08-23T02:16:45.785Z,20.40
2018-08-23T02:19:14.254Z,20.30
2018-08-23T02:21:42.723Z,20.30
2018-08-23T02:24:11.176Z,20.30
2018-08-23T02:26:39.738Z,20.30
2018-08-23T02:29:08.266Z,20.20
2018-08-23T02:31:36.777Z,20.20
2018-08-23T02:34:05.496Z,20.20
2018-08-23T02:36:34.031Z,20.10
2018-08-23T02:39:04.287Z,20.10
2018-08-23T02:41:32.777Z,20.10
2018-08-23T02:44:01.359Z,20.10
2018-08-23T02:46:31.918Z,20.10
2018-08-23T02:49:00.553Z,20.10
2018-08-23T02:51:42.012Z,20.10
2018-08-23T02:54:15.325Z,20.10
2018-08-23T02:56:46.981Z,20.00
2018-08-23T02:59:15.527Z,20.00
2018-08-23T03:01:47.265Z,20.00
2018-08-23T03:04:23.212Z,19.90
2018-08-23T03:06:53.878Z,19.90
2018-08-23T03:09:29.417Z,19.90
2018-08-23T03:11:59.082Z,19.90
2018-08-23T03:14:28.437Z,19.80
2018-08-23T03:17:11.154Z,19.80
2018-08-23T03:19:46.495Z,19.80
2018-08-23T03:22:15.034Z,19.70
2018-08-23T03:24:43.762Z,19.70
2018-08-23T03:27:12.294Z,19.70
2018-08-23T03:29:40.788Z,19.70
2018-08-23T03:32:09.289Z,19.70
2018-08-23T03:34:37.823Z,19.60
2018-08-23T03:37:06.317Z,19.60
2018-08-23T03:39:34.769Z,19.60
2018-08-23T03:42:03.293Z,19.50
2018-08-23T03:44:37.985Z,19.60
2018-08-23T03:47:06.473Z,19.50
2018-08-23T03:49:40.412Z,19.50
2018-08-23T03:52:08.984Z,19.50
2018-08-23T03:54:37.443Z,19.50
2018-08-23T03:57:14.541Z,19.50
2018-08-23T03:59:45.134Z,19.40
2018-08-23T04:02:15.026Z,19.40
2018-08-23T04:04:44.879Z,19.40
2018-08-23T04:07:13.422Z,19.40
2018-08-23T04:09:43.091Z,19.40
2018-08-23T04:12:12.778Z,19.30
2018-08-23T04:14:41.489Z,19.40
2018-08-23T04:17:11.158Z,19.30
2018-08-23T04:19:42.841Z,19.30
2018-08-23T04:22:11.384Z,19.30
2018-08-23T04:24:45.040Z,19.30
2018-08-23T04:27:13.640Z,19.30
2018-08-23T04:29:48.336Z,19.30
2018-08-23T04:32:26.356Z,19.30
2018-08-23T04:34:55.457Z,19.30
2018-08-23T04:37:24.116Z,19.30
2018-08-23T04:39:58.006Z,19.30
2018-08-23T04:42:27.330Z,19.30
2018-08-23T04:44:55.907Z,19.40
2018-08-23T04:47:24.720Z,19.40
2018-08-23T04:49:53.360Z,19.40
2018-08-23T04:52:21.886Z,19.40
2018-08-23T04:54:50.452Z,19.40
2018-08-23T04:57:19.043Z,19.40
2018-08-23T04:59:47.559Z,19.40
2018-08-23T05:02:17.127Z,19.40
2018-08-23T05:04:48.800Z,19.40
2018-08-23T05:07:17.397Z,19.50
2018-08-23T05:09:45.908Z,19.50
2018-08-23T05:12:14.612Z,19.50
2018-08-23T05:14:43.156Z,19.50
2018-08-23T05:17:11.807Z,19.60
2018-08-23T05:19:40.681Z,19.60
2018-08-23T05:22:09.377Z,19.60
2018-08-23T05:24:38.562Z,19.70
2018-08-23T05:27:07.531Z,19.80
2018-08-23T05:29:36.067Z,19.80
2018-08-23T05:32:04.673Z,19.90
2018-08-23T05:34:35.335Z,19.90
2018-08-23T05:37:03.869Z,20.00
2018-08-23T05:39:44.935Z,20.00
2018-08-23T05:42:13.443Z,20.10
2018-08-23T05:44:41.985Z,20.20
2018-08-23T05:47:10.457Z,20.30
2018-08-23T05:49:38.982Z,20.40
2018-08-23T05:52:07.713Z,20.40
2018-08-23T05:54:36.661Z,20.50
2018-08-23T05:57:05.132Z,20.50
2018-08-23T05:59:33.638Z,20.60
2018-08-23T06:02:02.311Z,20.70
2018-08-23T06:04:39.616Z,20.80
2018-08-23T06:07:08.167Z,20.80
2018-08-23T06:09:36.795Z,20.90
2018-08-23T06:12:05.477Z,21.00
2018-08-23T06:14:33.996Z,21.10
2018-08-23T06:17:02.554Z,21.20
2018-08-23T06:19:32.049Z,21.30
2018-08-23T06:22:00.907Z,21.40
2018-08-23T06:24:30.424Z,21.50
2018-08-23T06:27:01.093Z,21.50
2018-08-23T06:29:32.813Z,21.60
2018-08-23T06:32:05.716Z,21.70
2018-08-23T06:34:36.072Z,21.80
2018-08-23T06:37:04.610Z,21.90
2018-08-23T06:39:33.181Z,22.00
2018-08-23T06:42:02.903Z,22.10
2018-08-23T06:44:47.260Z,22.10
2018-08-23T06:47:20.650Z,22.30
2018-08-23T06:49:51.035Z,22.40
2018-08-23T06:52:30.124Z,22.50
2018-08-23T06:54:58.610Z,22.60
2018-08-23T06:57:29.544Z,22.80
2018-08-23T06:59:58.085Z,22.90
2018-08-23T07:02:26.541Z,23.00
2018-08-23T07:04:55.413Z,23.20
2018-08-23T07:07:23.927Z,23.30
2018-08-23T07:09:52.391Z,23.40
2018-08-23T07:12:21.498Z,23.50
2018-08-23T07:14:51.017Z,23.70
2018-08-23T07:17:25.042Z,23.80
2018-08-23T07:19:53.560Z,23.90
2018-08-23T07:22:23.438Z,24.10
2018-08-23T07:24:53.363Z,24.30
2018-08-23T07:27:22.519Z,24.40
2018-08-23T07:29:53.856Z,24.50
2018-08-23T07:32:23.345Z,24.70
2018-08-23T07:34:56.839Z,24.70
2018-08-23T07:37:25.386Z,24.90
2018-08-23T07:39:59.101Z,25.10
2018-08-23T07:42:28.684Z,25.20
2018-08-23T07:44:57.843Z,25.40
2018-08-23T07:47:26.884Z,25.50
2018-08-23T07:49:56.467Z,25.70
2018-08-23T07:52:25.924Z,25.80
2018-08-23T07:54:54.478Z,26.00
2018-08-23T07:57:23.098Z,26.10
2018-08-23T07:59:58.214Z,26.20
2018-08-23T08:02:27.394Z,26.40
2018-08-23T08:04:56.305Z,26.50
2018-08-23T08:07:29.090Z,26.70
2018-08-23T08:09:59.827Z,26.80
2018-08-23T08:12:36.681Z,26.90
2018-08-23T08:15:06.846Z,27.10
2018-08-23T08:17:35.265Z,27.20
2018-08-23T08:20:05.975Z,27.30
2018-08-23T08:22:34.609Z,27.40
2018-08-23T08:25:09.227Z,27.50
2018-08-23T08:27:38.623Z,27.70
2018-08-23T08:30:11.317Z,27.90
2018-08-23T08:32:39.783Z,28.00
2018-08-23T08:35:14.354Z,28.10
2018-08-23T08:37:44.351Z,28.20
2018-08-23T08:40:14.966Z,28.40
2018-08-23T08:42:43.477Z,28.50
2018-08-23T08:45:13.084Z,28.60
2018-08-23T08:47:43.012Z,28.70
2018-08-23T08:50:11.555Z,28.90
2018-08-23T08:52:40.053Z,29.00
2018-08-23T08:55:10.388Z,29.10
2018-08-23T08:57:41.993Z,29.20
2018-08-23T09:00:10.982Z,29.30
2018-08-23T09:02:40.405Z,29.40
2018-08-23T09:05:09.931Z,29.50
2018-08-23T09:07:39.541Z,29.60
2018-08-23T09:10:08.056Z,29.70
2018-08-23T09:12:43.786Z,29.90
2018-08-23T09:15:13.138Z,30.00
2018-08-23T09:17:45.794Z,30.10
2018-08-23T09:20:16.522Z,30.10
2018-08-23T09:22:51.696Z,30.20
2018-08-23T09:25:35.624Z,30.30
2018-08-23T09:28:04.192Z,30.30
2018-08-23T09:30:33.531Z,30.40
2018-08-23T09:33:08.422Z,30.50
2018-08-23T09:35:37.002Z,30.60
2018-08-23T09:38:11.579Z,30.70
2018-08-23T09:40:40.147Z,30.70
2018-08-23T09:43:08.740Z,30.80
2018-08-23T09:45:39.699Z,30.80
2018-08-23T09:48:08.547Z,30.90
2018-08-23T09:50:37.485Z,31.00
2018-08-23T09:53:11.886Z,31.10
2018-08-23T09:55:40.501Z,31.20
2018-08-23T09:58:14.397Z,31.20
2018-08-23T10:00:48.250Z,31.30
2018-08-23T10:03:22.194Z,31.30
2018-08-23T10:05:55.933Z,31.40
2018-08-23T10:08:29.869Z,31.50
2018-08-23T10:11:03.633Z,31.60
2018-08-23T10:13:37.334Z,31.60
2018-08-23T10:16:11.247Z,31.80
2018-08-23T10:18:45.094Z,31.90
2018-08-23T10:21:15.952Z,31.90
2018-08-23T10:23:44.475Z,32.00
2018-08-23T10:26:28.638Z,32.10
2018-08-23T10:28:57.810Z,32.20
2018-08-23T10:31:26.687Z,32.20
2018-08-23T10:33:55.226Z,32.20
2018-08-23T10:36:23.786Z,32.20
2018-08-23T10:38:52.286Z,32.30
2018-08-23T10:41:20.910Z,32.40
2018-08-23T10:43:49.428Z,32.50
2018-08-23T10:46:17.949Z,32.60
2018-08-23T10:48:47.246Z,32.70
2018-08-23T10:51:15.759Z,32.80
2018-08-23T10:53:44.332Z,32.80
2018-08-23T10:56:12.808Z,33.00
2018-08-23T10:58:41.365Z,33.10
2018-08-23T11:01:09.970Z,33.10
2018-08-23T11:03:38.527Z,33.10
2018-08-23T11:06:07.052Z,33.10
2018-08-23T11:08:36.972Z,33.00
2018-08-23T11:11:10.812Z,33.10
2018-08-23T11:13:44.679Z,33.10
2018-08-23T11:18:22.102Z,33.20
2018-08-23T11:20:51.182Z,33.30
2018-08-23T11:23:25.348Z,33.20
2018-08-23T11:25:53.874Z,33.20
2018-08-23T11:28:23.692Z,33.20
2018-08-23T11:30:52.913Z,33.30
2018-08-23T11:33:21.565Z,33.60
2018-08-23T11:35:50.164Z,34.10
2018-08-23T11:38:18.765Z,34.80
2018-08-23T11:40:47.268Z,35.70
2018-08-23T11:43:15.760Z,36.70
2018-08-23T11:45:44.329Z,37.50
2018-08-23T11:48:12.837Z,38.30
2018-08-23T11:50:41.890Z,38.90
2018-08-23T11:53:10.474Z,39.50
2018-08-23T11:55:38.949Z,39.90
2018-08-23T11:58:07.504Z,40.40
2018-08-23T12:00:36.122Z,40.90
2018-08-23T12:03:05.028Z,41.40
2018-08-23T12:05:33.612Z,41.80
2018-08-23T12:08:02.185Z,42.20
2018-08-23T12:10:32.406Z,42.60
2018-08-23T12:13:04.639Z,43.00
2018-08-23T12:15:37.388Z,43.30
2018-08-23T12:18:06.279Z,43.90
2018-08-23T12:20:34.884Z,44.50
2018-08-23T12:23:03.456Z,44.90
2018-08-23T12:25:32.020Z,45.30
2018-08-23T12:29:05.411Z,45.80
2018-08-23T12:31:33.985Z,45.70
2018-08-23T12:34:04.732Z,45.70
2018-08-23T12:36:38.708Z,46.20
2018-08-23T12:39:14.022Z,46.80
2018-08-23T12:41:48.366Z,47.50
2018-08-23T12:44:17.502Z,48.30
2018-08-23T12:46:46.141Z,48.90
2018-08-23T12:49:16.267Z,49.40
2018-08-23T12:51:44.777Z,49.90
2018-08-23T12:54:13.385Z,50.10
2018-08-23T12:56:41.899Z,50.20
2018-08-23T12:59:10.367Z,50.30
2018-08-23T13:01:39.083Z,50.40
2018-08-23T13:04:07.838Z,50.00
2018-08-23T13:06:36.345Z,48.80
2018-08-23T13:09:05.878Z,47.30
2018-08-23T13:11:35.354Z,45.90
2018-08-23T13:14:03.883Z,44.60
2018-08-23T13:16:32.624Z,43.50
2018-08-23T13:19:01.352Z,42.50
2018-08-23T13:21:29.977Z,42.10
2018-08-23T13:23:58.525Z,42.70
2018-08-23T13:26:32.348Z,43.80
2018-08-23T13:29:00.938Z,44.90
2018-08-23T13:31:29.682Z,46.00
2018-08-23T13:33:58.205Z,46.90
2018-08-23T13:36:26.892Z,47.40
2018-08-23T13:38:55.322Z,47.80
2018-08-23T13:41:23.843Z,47.80
2018-08-23T13:43:52.354Z,47.70
2018-08-23T13:46:20.955Z,47.10
2018-08-23T13:48:49.449Z,46.40
2018-08-23T13:51:18.041Z,45.50
2018-08-23T13:53:46.546Z,45.10
2018-08-23T13:56:15.174Z,44.50
2018-08-23T13:58:43.693Z,43.80
2018-08-23T14:01:12.485Z,43.20
2018-08-23T14:03:41.052Z,42.50
2018-08-23T14:06:09.687Z,42.00
2018-08-23T14:08:38.245Z,41.40
2018-08-23T14:11:06.850Z,40.80
2018-08-23T14:13:35.374Z,40.40
2018-08-23T14:16:04.847Z,39.90
2018-08-23T14:18:34.758Z,39.80
2018-08-23T14:21:03.349Z,40.50
2018-08-23T14:23:32.104Z,41.20
2018-08-23T14:26:00.603Z,42.00
2018-08-23T14:28:29.155Z,43.10
2018-08-23T14:30:57.767Z,43.60
2018-08-23T14:33:27.028Z,43.60
2018-08-23T14:35:55.716Z,43.10
2018-08-23T14:38:24.666Z,42.30
2018-08-23T14:40:53.921Z,41.50
2018-08-23T14:43:22.423Z,40.60
2018-08-23T14:45:52.150Z,39.60
2018-08-23T14:48:21.351Z,38.90
2018-08-23T14:50:51.952Z,38.30
2018-08-23T14:53:26.072Z,37.80
2018-08-23T14:56:00.312Z,37.40
2018-08-23T14:58:29.650Z,37.10
2018-08-23T15:00:58.250Z,36.70
2018-08-23T15:03:27.397Z,36.50
2018-08-23T15:05:56.100Z,36.20
2018-08-23T15:08:24.647Z,35.90
2018-08-23T15:10:53.145Z,35.70
2018-08-23T15:13:21.626Z,35.40
2018-08-23T15:15:52.367Z,35.10
2018-08-23T15:18:22.105Z,35.00
2018-08-23T15:20:51.218Z,34.80
2018-08-23T15:23:19.938Z,34.60
2018-08-23T15:25:48.617Z,34.60
2018-08-23T15:28:17.234Z,34.50
2018-08-23T15:30:45.853Z,34.50
2018-08-23T15:33:14.407Z,34.60
2018-08-23T15:35:43.196Z,34.60
2018-08-23T15:38:12.112Z,34.60
2018-08-23T15:40:40.867Z,34.50
2018-08-23T15:43:10.023Z,34.40
2018-08-23T15:45:38.659Z,34.20
2018-08-23T15:48:07.198Z,34.00
2018-08-23T15:50:35.940Z,33.70
2018-08-23T15:53:04.522Z,33.30
2018-08-23T15:55:34.179Z,32.90
2018-08-23T15:58:02.482Z,32.40
2018-08-23T16:00:36.566Z,32.00
2018-08-23T16:03:05.592Z,31.60
2018-08-23T16:05:34.929Z,31.00
2018-08-23T16:08:03.595Z,30.30
2018-08-23T16:10:32.701Z,29.70
2018-08-23T16:13:01.338Z,29.20
2018-08-23T16:15:30.062Z,28.70
2018-08-23T16:18:03.986Z,28.40
2018-08-23T16:20:37.686Z,28.20
2018-08-23T16:23:06.449Z,28.00
2018-08-23T16:25:40.256Z,27.80
2018-08-23T16:28:08.967Z,27.70
2018-08-23T16:30:40.287Z,27.40
2018-08-23T16:33:08.947Z,27.30
2018-08-23T16:35:41.830Z,27.20
2018-08-23T16:38:10.600Z,27.20
2018-08-23T16:40:40.118Z,27.20
2018-08-23T16:43:08.713Z,27.20
2018-08-23T16:45:37.353Z,27.30
2018-08-23T16:48:06.487Z,27.40
2018-08-23T16:50:35.059Z,27.40
2018-08-23T16:53:04.245Z,27.50
2018-08-23T16:55:33.146Z,27.50
2018-08-23T16:58:05.928Z,27.50
2018-08-23T17:00:34.645Z,27.40
2018-08-23T17:03:03.259Z,27.50
2018-08-23T17:05:35.614Z,27.40
2018-08-23T17:08:04.567Z,27.50
2018-08-23T17:10:34.055Z,27.50
2018-08-23T17:13:02.767Z,27.50
2018-08-23T17:15:36.570Z,27.50
2018-08-23T17:18:05.550Z,27.50
2018-08-23T17:20:34.335Z,27.40
2018-08-23T17:23:02.863Z,27.50
2018-08-23T17:25:31.423Z,27.40
2018-08-23T17:28:01.358Z,27.30
2018-08-23T17:30:38.988Z,27.30
2018-08-23T17:33:07.797Z,27.40
2018-08-23T17:35:37.328Z,27.40
2018-08-23T17:38:07.058Z,27.30
2018-08-23T17:40:35.746Z,27.30
2018-08-23T17:43:05.871Z,27.20
2018-08-23T17:45:37.591Z,27.20
2018-08-23T17:48:06.531Z,27.20
2018-08-23T17:50:36.268Z,27.20
2018-08-23T17:53:05.208Z,27.10
2018-08-23T17:55:34.001Z,27.00
2018-08-23T17:58:02.875Z,27.00
2018-08-23T18:00:31.831Z,27.00
2018-08-23T18:03:00.681Z,26.90
2018-08-23T18:05:29.268Z,26.90
2018-08-23T18:07:58.847Z,26.90
2018-08-23T18:10:27.941Z,26.90
2018-08-23T18:12:56.700Z,26.90
2018-08-23T18:15:30.362Z,26.90
2018-08-23T18:17:59.475Z,26.90
2018-08-23T18:20:28.642Z,27.50
2018-08-23T18:22:57.364Z,26.80
2018-08-23T18:25:26.370Z,26.80
2018-08-23T18:27:55.382Z,26.80
2018-08-23T18:30:36.171Z,26.80
2018-08-23T18:33:08.200Z,26.70
2018-08-23T18:35:37.455Z,26.70
2018-08-23T18:38:13.036Z,26.70
2018-08-23T18:40:43.655Z,26.70
2018-08-23T18:43:18.415Z,26.70
2018-08-23T18:45:48.227Z,26.70
2018-08-23T18:48:18.103Z,26.70
2018-08-23T18:50:49.039Z,26.70
2018-08-23T18:53:18.151Z,26.70
2018-08-23T18:55:47.598Z,26.70
2018-08-23T18:58:18.922Z,26.60
2018-08-23T19:00:49.762Z,26.60
2018-08-23T19:03:18.506Z,26.60
2018-08-23T19:05:47.155Z,26.60
2018-08-23T19:08:16.167Z,26.60
2018-08-23T19:10:45.087Z,26.60
2018-08-23T19:13:13.809Z,26.60
2018-08-23T19:15:48.941Z,26.50
2018-08-23T19:18:19.547Z,26.50
2018-08-23T19:20:48.225Z,26.50
2018-08-23T19:23:21.571Z,26.40
2018-08-23T19:25:50.496Z,26.40
2018-08-23T19:28:21.027Z,26.40
2018-08-23T19:30:50.857Z,26.40
2018-08-23T19:33:19.495Z,26.30
2018-08-23T19:35:49.960Z,26.40
2018-08-23T19:38:18.719Z,26.30
2018-08-23T19:40:47.794Z,26.30
2018-08-23T19:43:16.664Z,26.30
2018-08-23T19:45:57.829Z,26.20
2018-08-23T19:48:32.672Z,26.20
2018-08-23T19:51:01.897Z,26.10
2018-08-23T19:53:30.675Z,26.10
2018-08-23T19:55:59.642Z,26.00
2018-08-23T19:58:28.174Z,26.00
2018-08-23T20:00:57.900Z,26.00
2018-08-23T20:03:27.025Z,26.00
2018-08-23T20:05:56.754Z,26.00
2018-08-23T20:08:25.491Z,26.00
2018-08-23T20:10:54.334Z,26.00
2018-08-23T20:13:22.927Z,26.00
2018-08-23T20:15:55.216Z,25.90
2018-08-23T20:18:24.291Z,25.90
2018-08-23T20:20:53.211Z,25.90
2018-08-23T20:23:25.318Z,25.90
2018-08-23T20:25:53.993Z,25.90
2018-08-23T20:28:22.525Z,25.90
2018-08-23T20:30:51.061Z,25.80
2018-08-23T20:33:19.608Z,25.90
2018-08-23T20:35:48.250Z,25.90
2018-08-23T20:38:16.885Z,26.00
2018-08-23T20:40:45.417Z,26.00
2018-08-23T20:43:14.349Z,26.00
2018-08-23T20:45:43.668Z,26.10
2018-08-23T20:48:12.396Z,26.00
2018-08-23T20:50:41.096Z,26.00
2018-08-23T20:53:09.884Z,26.00
2018-08-23T20:55:38.527Z,26.10
2018-08-23T20:58:08.211Z,26.00
2018-08-23T21:00:36.946Z,26.00
2018-08-23T21:03:05.527Z,26.00
2018-08-23T21:05:34.123Z,26.00
2018-08-23T21:08:02.730Z,26.00
2018-08-23T21:10:31.386Z,26.00
2018-08-23T21:13:00.219Z,26.00
2018-08-23T21:15:29.845Z,25.90
2018-08-23T21:17:58.758Z,25.90
2018-08-23T21:20:27.497Z,25.90
2018-08-23T21:22:56.036Z,25.90
2018-08-23T21:25:24.578Z,25.90
2018-08-23T21:27:53.112Z,25.90
2018-08-23T21:30:21.739Z,25.90
2018-08-23T21:32:50.474Z,25.80
2018-08-23T21:35:18.938Z,25.80
2018-08-23T21:37:47.572Z,25.90
2018-08-23T21:40:16.297Z,25.90
2018-08-23T21:42:45.632Z,25.80
2018-08-23T21:45:14.245Z,25.90
2018-08-23T21:47:42.762Z,25.90
2018-08-23T21:50:11.273Z,25.90
2018-08-23T21:52:39.889Z,25.90
2018-08-23T21:55:08.391Z,25.80
2018-08-23T21:57:37.031Z,25.80
2018-08-23T22:00:06.672Z,25.80
2018-08-23T22:02:35.296Z,25.80
2018-08-23T22:05:03.837Z,25.80
2018-08-23T22:07:32.377Z,25.80
2018-08-23T22:10:00.963Z,25.80
2018-08-23T22:12:29.416Z,25.80
2018-08-23T22:14:57.864Z,25.80
2018-08-23T22:17:26.387Z,25.80
2018-08-23T22:19:55.128Z,25.80
2018-08-23T22:22:23.679Z,25.80
2018-08-23T22:24:53.061Z,25.80
2018-08-23T22:27:21.657Z,25.80
2018-08-23T22:29:51.218Z,25.90
2018-08-23T22:32:19.726Z,25.90
2018-08-23T22:34:48.500Z,25.90
2018-08-23T22:37:16.995Z,25.90
2018-08-23T22:39:45.465Z,25.80
2018-08-23T22:42:13.967Z,25.90
2018-08-23T22:44:42.417Z,25.80
2018-08-23T22:47:10.893Z,25.90
2018-08-23T22:49:39.361Z,25.80
2018-08-23T22:52:07.850Z,25.80
2018-08-23T22:54:36.405Z,25.80
2018-08-23T22:57:04.949Z,25.80
2018-08-23T22:59:33.517Z,25.80
2018-08-23T23:02:01.992Z,25.70
2018-08-23T23:04:30.536Z,25.70
2018-08-23T23:06:59.390Z,25.50
2018-08-23T23:09:27.907Z,25.40
2018-08-23T23:11:56.534Z,25.40
2018-08-23T23:14:25.005Z,25.20
2018-08-23T23:16:55.300Z,25.20
2018-08-23T23:19:24.645Z,25.10
2018-08-23T23:21:53.247Z,25.00
2018-08-23T23:24:27.012Z,25.00
2018-08-23T23:26:56.416Z,24.90
2018-08-23T23:29:25.365Z,24.80
2018-08-23T23:31:54.057Z,24.80
2018-08-23T23:34:22.521Z,24.80
2018-08-23T23:36:50.998Z,24.70
2018-08-23T23:39:19.586Z,24.70
2018-08-23T23:41:48.084Z,24.70
2018-08-23T23:44:16.728Z,24.60
2018-08-23T23:46:45.219Z,24.60
2018-08-23T23:49:13.717Z,24.50
2018-08-23T23:51:42.331Z,24.40
2018-08-23T23:54:10.812Z,24.40
2018-08-23T23:56:39.383Z,24.40
2018-08-23T23:59:07.924Z,24.30
